sensor_id;sensor_type;location;lat;lon;timestamp;temperature;humidity
31515;DHT22;40526;52.088;17.020;2023-04-25T00:04:34;8.60;99.90
31515;DHT22;40526;52.088;17.020;2023-04-25T00:09:40;8.50;99.90
31515;DHT22;40526;52.088;17.020;2023-04-25T00:19:46;8.30;99.90
31515;DHT22;40526;52.088;17.020;2023-04-25T00:24:50;6.20;99.90
31515;DHT22;40526;52.088;17.020;2023-04-25T00:29:54;8.20;99.90
31515;DHT22;40526;52.088;17.020;2023-04-25T00:34:56;8.10;99.90
31515;DHT22;40526;52.088;17.020;2023-04-25T00:40:00;8.00;99.90
31515;DHT22;40526;52.088;17.020;2023-04-25T00:45:05;8.00;99.90
31515;DHT22;40526;52.088;17.020;2023-04-25T00:50:08;7.90;99.90
31515;DHT22;40526;52.088;17.020;2023-04-25T00:55:13;8.00;99.90
31515;DHT22;40526;52.088;17.020;2023-04-25T01:00:17;8.00;99.90
31515;DHT22;40526;52.088;17.020;2023-04-25T01:05:19;8.00;99.90
31515;DHT22;40526;52.088;17.020;2023-04-25T01:10:24;8.00;99.90
31515;DHT22;40526;52.088;17.020;2023-04-25T01:15:26;7.90;99.90
31515;DHT22;40526;52.088;17.020;2023-04-25T01:20:29;7.90;99.90
31515;DHT22;40526;52.088;17.020;2023-04-25T01:25:33;7.80;99.90
31515;DHT22;40526;52.088;17.020;2023-04-25T01:30:37;7.70;99.90
31515;DHT22;40526;52.088;17.020;2023-04-25T01:35:40;7.60;99.90
31515;DHT22;40526;52.088;17.020;2023-04-25T01:40:45;7.60;99.90
31515;DHT22;40526;52.088;17.020;2023-04-25T01:45:49;7.50;99.90
31515;DHT22;40526;52.088;17.020;2023-04-25T01:50:52;7.50;99.90
31515;DHT22;40526;52.088;17.020;2023-04-25T01:55:56;7.50;99.90
31515;DHT22;40526;52.088;17.020;2023-04-25T02:01:01;7.40;99.90
31515;DHT22;40526;52.088;17.020;2023-04-25T02:06:10;7.40;99.90
31515;DHT22;40526;52.088;17.020;2023-04-25T02:11:18;7.30;99.90
31515;DHT22;40526;52.088;17.020;2023-04-25T02:21:52;7.30;99.90
31515;DHT22;40526;52.088;17.020;2023-04-25T02:31:59;7.20;99.90
31515;DHT22;40526;52.088;17.020;2023-04-25T02:42:05;7.10;99.90
31515;DHT22;40526;52.088;17.020;2023-04-25T02:47:07;7.10;99.90
31515;DHT22;40526;52.088;17.020;2023-04-25T02:52:09;7.00;99.90
31515;DHT22;40526;52.088;17.020;2023-04-25T02:57:13;7.00;99.90
31515;DHT22;40526;52.088;17.020;2023-04-25T03:12:24;6.90;99.90
31515;DHT22;40526;52.088;17.020;2023-04-25T03:17:27;6.90;99.90
31515;DHT22;40526;52.088;17.020;2023-04-25T03:22:29;6.90;99.90
31515;DHT22;40526;52.088;17.020;2023-04-25T03:27:33;6.90;99.90
31515;DHT22;40526;52.088;17.020;2023-04-25T03:32:37;6.90;99.90
31515;DHT22;40526;52.088;17.020;2023-04-25T03:37:41;6.80;99.90
31515;DHT22;40526;52.088;17.020;2023-04-25T03:42:50;6.90;99.90
31515;DHT22;40526;52.088;17.020;2023-04-25T03:47:53;6.90;99.90
31515;DHT22;40526;52.088;17.020;2023-04-25T03:52:55;7.00;99.90
31515;DHT22;40526;52.088;17.020;2023-04-25T03:58:02;7.00;99.90
31515;DHT22;40526;52.088;17.020;2023-04-25T04:13:14;7.30;99.90
31515;DHT22;40526;52.088;17.020;2023-04-25T04:18:18;7.80;99.90
31515;DHT22;40526;52.088;17.020;2023-04-25T04:23:21;8.10;99.90
31515;DHT22;40526;52.088;17.020;2023-04-25T04:28:25;8.20;99.90
31515;DHT22;40526;52.088;17.020;2023-04-25T04:33:47;8.10;99.90
31515;DHT22;40526;52.088;17.020;2023-04-25T04:38:51;7.90;99.90
31515;DHT22;40526;52.088;17.020;2023-04-25T04:44:07;8.00;99.90
31515;DHT22;40526;52.088;17.020;2023-04-25T04:49:32;8.40;99.90
31515;DHT22;40526;52.088;17.020;2023-04-25T04:55:05;8.80;99.90
31515;DHT22;40526;52.088;17.020;2023-04-25T05:00:28;8.90;99.90
31515;DHT22;40526;52.088;17.020;2023-04-25T05:05:47;9.20;99.90
31515;DHT22;40526;52.088;17.020;2023-04-25T05:11:05;9.40;99.90
31515;DHT22;40526;52.088;17.020;2023-04-25T05:16:27;9.70;99.90
31515;DHT22;40526;52.088;17.020;2023-04-25T05:21:44;10.20;99.90
31515;DHT22;40526;52.088;17.020;2023-04-25T05:27:12;11.30;99.90
31515;DHT22;40526;52.088;17.020;2023-04-25T05:32:26;11.90;99.90
31515;DHT22;40526;52.088;17.020;2023-04-25T05:37:29;11.50;99.90
31515;DHT22;40526;52.088;17.020;2023-04-25T05:42:41;11.00;99.90
31515;DHT22;40526;52.088;17.020;2023-04-25T05:48:16;11.00;99.90
31515;DHT22;40526;52.088;17.020;2023-04-25T05:58:41;11.30;99.90
31515;DHT22;40526;52.088;17.020;2023-04-25T06:03:47;11.80;99.90
31515;DHT22;40526;52.088;17.020;2023-04-25T06:08:51;12.40;99.90
31515;DHT22;40526;52.088;17.020;2023-04-25T06:13:54;12.80;99.90
31515;DHT22;40526;52.088;17.020;2023-04-25T06:18:57;12.60;99.90
31515;DHT22;40526;52.088;17.020;2023-04-25T06:24:00;13.10;99.90
31515;DHT22;40526;52.088;17.020;2023-04-25T06:34:07;13.00;99.90
31515;DHT22;40526;52.088;17.020;2023-04-25T06:39:13;13.30;99.90
31515;DHT22;40526;52.088;17.020;2023-04-25T06:44:16;13.40;99.90
31515;DHT22;40526;52.088;17.020;2023-04-25T06:49:29;13.30;99.90
31515;DHT22;40526;52.088;17.020;2023-04-25T06:54:32;13.30;99.90
31515;DHT22;40526;52.088;17.020;2023-04-25T06:59:41;13.30;99.90
31515;DHT22;40526;52.088;17.020;2023-04-25T07:04:45;13.90;99.90
31515;DHT22;40526;52.088;17.020;2023-04-25T07:09:48;15.00;99.90
31515;DHT22;40526;52.088;17.020;2023-04-25T07:19:54;15.50;99.90
31515;DHT22;40526;52.088;17.020;2023-04-25T07:24:57;16.40;97.30
31515;DHT22;40526;52.088;17.020;2023-04-25T07:30:01;16.60;96.50
31515;DHT22;40526;52.088;17.020;2023-04-25T07:35:06;16.30;97.60
31515;DHT22;40526;52.088;17.020;2023-04-25T07:40:10;15.60;98.20
31515;DHT22;40526;52.088;17.020;2023-04-25T07:45:18;15.40;98.90
31515;DHT22;40526;52.088;17.020;2023-04-25T07:50:22;14.90;99.30
31515;DHT22;40526;52.088;17.020;2023-04-25T07:55:24;14.70;99.90
31515;DHT22;40526;52.088;17.020;2023-04-25T08:00:47;14.60;99.90
31515;DHT22;40526;52.088;17.020;2023-04-25T08:06:13;14.90;99.90
31515;DHT22;40526;52.088;17.020;2023-04-25T08:11:24;15.00;99.90
31515;DHT22;40526;52.088;17.020;2023-04-25T08:21:32;15.30;99.00
31515;DHT22;40526;52.088;17.020;2023-04-25T08:31:44;15.30;99.40
31515;DHT22;40526;52.088;17.020;2023-04-25T08:36:49;15.60;99.50
31515;DHT22;40526;52.088;17.020;2023-04-25T08:42:03;15.10;98.80
31515;DHT22;40526;52.088;17.020;2023-04-25T08:52:22;14.80;99.90
31515;DHT22;40526;52.088;17.020;2023-04-25T09:02:29;15.70;98.00
31515;DHT22;40526;52.088;17.020;2023-04-25T09:07:33;15.70;96.80
31515;DHT22;40526;52.088;17.020;2023-04-25T09:12:36;15.60;96.20
31515;DHT22;40526;52.088;17.020;2023-04-25T09:17:41;15.70;97.70
31515;DHT22;40526;52.088;17.020;2023-04-25T09:22:47;15.60;93.90
31515;DHT22;40526;52.088;17.020;2023-04-25T09:32:57;15.50;95.70
31515;DHT22;40526;52.088;17.020;2023-04-25T09:38:01;15.60;95.30
31515;DHT22;40526;52.088;17.020;2023-04-25T09:43:24;15.40;97.60
31515;DHT22;40526;52.088;17.020;2023-04-25T09:48:28;15.40;95.20
31515;DHT22;40526;52.088;17.020;2023-04-25T09:53:36;15.70;95.60
31515;DHT22;40526;52.088;17.020;2023-04-25T10:04:01;16.20;92.80
31515;DHT22;40526;52.088;17.020;2023-04-25T10:09:41;15.20;95.70
31515;DHT22;40526;52.088;17.020;2023-04-25T10:14:46;15.20;96.70
31515;DHT22;40526;52.088;17.020;2023-04-25T10:24:53;16.10;91.90
31515;DHT22;40526;52.088;17.020;2023-04-25T10:30:04;17.00;92.80
31515;DHT22;40526;52.088;17.020;2023-04-25T10:35:12;16.40;91.10
31515;DHT22;40526;52.088;17.020;2023-04-25T10:40:21;15.10;90.10
31515;DHT22;40526;52.088;17.020;2023-04-25T10:45:24;13.90;93.10
31515;DHT22;40526;52.088;17.020;2023-04-25T10:50:37;13.80;93.40
31515;DHT22;40526;52.088;17.020;2023-04-25T10:55:51;13.90;93.70
31515;DHT22;40526;52.088;17.020;2023-04-25T11:00:53;14.20;95.80
31515;DHT22;40526;52.088;17.020;2023-04-25T11:05:56;14.20;93.80
31515;DHT22;40526;52.088;17.020;2023-04-25T11:11:00;13.90;94.90
31515;DHT22;40526;52.088;17.020;2023-04-25T11:16:03;13.80;94.40
31515;DHT22;40526;52.088;17.020;2023-04-25T11:21:09;14.70;96.20
31515;DHT22;40526;52.088;17.020;2023-04-25T11:26:13;13.60;97.80
31515;DHT22;40526;52.088;17.020;2023-04-25T11:36:18;13.80;97.90
31515;DHT22;40526;52.088;17.020;2023-04-25T11:41:22;13.80;97.20
31515;DHT22;40526;52.088;17.020;2023-04-25T11:46:25;13.80;96.80
31515;DHT22;40526;52.088;17.020;2023-04-25T11:56:34;14.00;97.10
31515;DHT22;40526;52.088;17.020;2023-04-25T12:01:38;14.60;96.20
31515;DHT22;40526;52.088;17.020;2023-04-25T12:06:43;15.20;95.70
31515;DHT22;40526;52.088;17.020;2023-04-25T12:11:53;15.60;95.30
31515;DHT22;40526;52.088;17.020;2023-04-25T12:16:57;15.80;92.30
31515;DHT22;40526;52.088;17.020;2023-04-25T12:22:01;15.60;92.00
31515;DHT22;40526;52.088;17.020;2023-04-25T12:27:06;15.10;93.40
31515;DHT22;40526;52.088;17.020;2023-04-25T12:32:09;14.60;93.30
31515;DHT22;40526;52.088;17.020;2023-04-25T12:37:12;13.70;96.30
31515;DHT22;40526;52.088;17.020;2023-04-25T12:42:16;13.60;99.90
31515;DHT22;40526;52.088;17.020;2023-04-25T12:47:18;13.60;99.90
31515;DHT22;40526;52.088;17.020;2023-04-25T12:52:21;13.90;99.90
31515;DHT22;40526;52.088;17.020;2023-04-25T12:57:26;14.20;99.90
31515;DHT22;40526;52.088;17.020;2023-04-25T13:02:28;14.40;99.90
31515;DHT22;40526;52.088;17.020;2023-04-25T13:07:30;15.10;99.90
31515;DHT22;40526;52.088;17.020;2023-04-25T13:12:34;15.60;96.80
31515;DHT22;40526;52.088;17.020;2023-04-25T13:22:39;15.30;96.00
31515;DHT22;40526;52.088;17.020;2023-04-25T13:27:42;14.10;99.60
31515;DHT22;40526;52.088;17.020;2023-04-25T13:32:45;13.10;99.90
31515;DHT22;40526;52.088;17.020;2023-04-25T13:37:48;12.40;99.90
31515;DHT22;40526;52.088;17.020;2023-04-25T13:42:52;12.00;99.90
31515;DHT22;40526;52.088;17.020;2023-04-25T13:47:54;12.20;99.90
31515;DHT22;40526;52.088;17.020;2023-04-25T13:52:56;12.60;99.90
31515;DHT22;40526;52.088;17.020;2023-04-25T13:58:00;13.20;99.90
31515;DHT22;40526;52.088;17.020;2023-04-25T14:03:07;14.00;99.90
31515;DHT22;40526;52.088;17.020;2023-04-25T14:13:14;14.60;99.90
31515;DHT22;40526;52.088;17.020;2023-04-25T14:18:16;14.80;99.90
31515;DHT22;40526;52.088;17.020;2023-04-25T14:23:19;14.90;99.90
31515;DHT22;40526;52.088;17.020;2023-04-25T14:28:22;14.30;99.90
31515;DHT22;40526;52.088;17.020;2023-04-25T14:33:26;13.60;99.90
31515;DHT22;40526;52.088;17.020;2023-04-25T14:38:29;13.20;99.90
31515;DHT22;40526;52.088;17.020;2023-04-25T14:43:33;12.80;99.90
31515;DHT22;40526;52.088;17.020;2023-04-25T14:48:36;12.80;99.90
31515;DHT22;40526;52.088;17.020;2023-04-25T14:53:39;12.80;99.90
31515;DHT22;40526;52.088;17.020;2023-04-25T14:58:43;12.70;99.90
31515;DHT22;40526;52.088;17.020;2023-04-25T15:03:46;12.60;99.90
31515;DHT22;40526;52.088;17.020;2023-04-25T15:08:48;12.80;99.90
31515;DHT22;40526;52.088;17.020;2023-04-25T15:13:52;12.90;99.90
31515;DHT22;40526;52.088;17.020;2023-04-25T15:18:54;13.00;99.90
31515;DHT22;40526;52.088;17.020;2023-04-25T15:23:57;12.80;99.90
31515;DHT22;40526;52.088;17.020;2023-04-25T15:29:01;12.80;99.90
31515;DHT22;40526;52.088;17.020;2023-04-25T15:34:04;12.70;99.90
31515;DHT22;40526;52.088;17.020;2023-04-25T15:39:07;12.30;99.90
31515;DHT22;40526;52.088;17.020;2023-04-25T15:44:11;12.10;99.90
31515;DHT22;40526;52.088;17.020;2023-04-25T15:54:16;12.10;99.90
31515;DHT22;40526;52.088;17.020;2023-04-25T15:59:20;12.00;99.90
31515;DHT22;40526;52.088;17.020;2023-04-25T16:04:22;11.60;99.90
31515;DHT22;40526;52.088;17.020;2023-04-25T16:14:29;11.20;99.90
31515;DHT22;40526;52.088;17.020;2023-04-25T16:19:31;10.90;99.90
31515;DHT22;40526;52.088;17.020;2023-04-25T16:24:33;10.70;99.90
31515;DHT22;40526;52.088;17.020;2023-04-25T16:29:37;10.60;99.90
31515;DHT22;40526;52.088;17.020;2023-04-25T16:34:39;10.70;99.90
31515;DHT22;40526;52.088;17.020;2023-04-25T16:39:41;10.50;99.90
31515;DHT22;40526;52.088;17.020;2023-04-25T16:44:45;10.40;99.90
31515;DHT22;40526;52.088;17.020;2023-04-25T16:49:47;10.30;99.90
31515;DHT22;40526;52.088;17.020;2023-04-25T16:59:54;10.20;99.90
31515;DHT22;40526;52.088;17.020;2023-04-25T17:04:56;10.20;99.90
31515;DHT22;40526;52.088;17.020;2023-04-25T17:09:58;10.30;99.90
31515;DHT22;40526;52.088;17.020;2023-04-25T17:15:02;10.40;99.90
31515;DHT22;40526;52.088;17.020;2023-04-25T17:20:07;10.50;99.90
31515;DHT22;40526;52.088;17.020;2023-04-25T17:25:10;10.60;99.90
31515;DHT22;40526;52.088;17.020;2023-04-25T17:30:14;10.50;99.90
31515;DHT22;40526;52.088;17.020;2023-04-25T17:35:17;10.80;99.90
31515;DHT22;40526;52.088;17.020;2023-04-25T17:45:23;10.70;99.90
31515;DHT22;40526;52.088;17.020;2023-04-25T17:50:26;10.40;99.90
31515;DHT22;40526;52.088;17.020;2023-04-25T17:55:28;10.00;99.90
31515;DHT22;40526;52.088;17.020;2023-04-25T18:00:32;9.80;99.90
31515;DHT22;40526;52.088;17.020;2023-04-25T18:05:35;9.40;99.90
31515;DHT22;40526;52.088;17.020;2023-04-25T18:10:38;9.00;99.90
31515;DHT22;40526;52.088;17.020;2023-04-25T18:15:42;8.90;99.90
31515;DHT22;40526;52.088;17.020;2023-04-25T18:20:45;8.60;99.90
31515;DHT22;40526;52.088;17.020;2023-04-25T18:25:47;8.40;99.90
31515;DHT22;40526;52.088;17.020;2023-04-25T18:30:53;8.20;99.90
31515;DHT22;40526;52.088;17.020;2023-04-25T18:35:55;8.00;99.90
31515;DHT22;40526;52.088;17.020;2023-04-25T18:40:58;7.80;99.90
31515;DHT22;40526;52.088;17.020;2023-04-25T18:46:01;7.80;99.90
31515;DHT22;40526;52.088;17.020;2023-04-25T18:51:03;7.40;99.90
31515;DHT22;40526;52.088;17.020;2023-04-25T18:56:06;7.30;99.90
31515;DHT22;40526;52.088;17.020;2023-04-25T19:01:10;7.10;99.90
31515;DHT22;40526;52.088;17.020;2023-04-25T19:06:12;7.10;99.90
31515;DHT22;40526;52.088;17.020;2023-04-25T19:11:14;7.00;99.90
31515;DHT22;40526;52.088;17.020;2023-04-25T19:16:18;6.90;99.90
31515;DHT22;40526;52.088;17.020;2023-04-25T19:21:22;6.70;99.90
31515;DHT22;40526;52.088;17.020;2023-04-25T19:31:27;6.40;99.90
31515;DHT22;40526;52.088;17.020;2023-04-25T19:36:30;6.20;99.90
31515;DHT22;40526;52.088;17.020;2023-04-25T19:41:33;6.30;99.90
31515;DHT22;40526;52.088;17.020;2023-04-25T19:46:37;6.10;99.90
31515;DHT22;40526;52.088;17.020;2023-04-25T19:56:42;6.10;99.90
31515;DHT22;40526;52.088;17.020;2023-04-25T20:01:47;6.00;99.90
31515;DHT22;40526;52.088;17.020;2023-04-25T20:11:52;5.80;99.90
31515;DHT22;40526;52.088;17.020;2023-04-25T20:16:56;5.70;99.90
31515;DHT22;40526;52.088;17.020;2023-04-25T20:21:58;5.70;99.90
31515;DHT22;40526;52.088;17.020;2023-04-25T20:32:08;6.10;99.90
31515;DHT22;40526;52.088;17.020;2023-04-25T20:37:10;6.30;99.90
31515;DHT22;40526;52.088;17.020;2023-04-25T20:42:15;6.40;99.90
31515;DHT22;40526;52.088;17.020;2023-04-25T20:47:19;6.40;99.90
31515;DHT22;40526;52.088;17.020;2023-04-25T20:52:21;6.40;99.90
31515;DHT22;40526;52.088;17.020;2023-04-25T21:02:28;6.50;99.90
31515;DHT22;40526;52.088;17.020;2023-04-25T21:07:30;6.70;99.90
31515;DHT22;40526;52.088;17.020;2023-04-25T21:17:37;6.60;99.90
31515;DHT22;40526;52.088;17.020;2023-04-25T21:27:49;6.70;99.90
31515;DHT22;40526;52.088;17.020;2023-04-25T21:32:53;6.70;99.90
31515;DHT22;40526;52.088;17.020;2023-04-25T21:37:56;6.70;99.90
31515;DHT22;40526;52.088;17.020;2023-04-25T21:48:03;6.70;99.90
31515;DHT22;40526;52.088;17.020;2023-04-25T21:53:06;6.70;99.90
31515;DHT22;40526;52.088;17.020;2023-04-25T21:58:10;6.80;99.90
31515;DHT22;40526;52.088;17.020;2023-04-25T22:03:13;6.70;99.90
31515;DHT22;40526;52.088;17.020;2023-04-25T22:13:18;6.80;99.90
31515;DHT22;40526;52.088;17.020;2023-04-25T22:18:22;6.70;99.90
31515;DHT22;40526;52.088;17.020;2023-04-25T22:23:24;6.60;99.90
31515;DHT22;40526;52.088;17.020;2023-04-25T22:33:30;6.40;99.90
31515;DHT22;40526;52.088;17.020;2023-04-25T22:38:33;6.50;99.90
31515;DHT22;40526;52.088;17.020;2023-04-25T22:43:36;6.50;99.90
31515;DHT22;40526;52.088;17.020;2023-04-25T22:48:40;6.50;99.90
31515;DHT22;40526;52.088;17.020;2023-04-25T22:53:43;6.50;99.90
31515;DHT22;40526;52.088;17.020;2023-04-25T22:58:45;6.30;99.90
31515;DHT22;40526;52.088;17.020;2023-04-25T23:03:50;6.10;99.90
31515;DHT22;40526;52.088;17.020;2023-04-25T23:08:53;5.90;99.90
31515;DHT22;40526;52.088;17.020;2023-04-25T23:13:55;5.80;99.90
31515;DHT22;40526;52.088;17.020;2023-04-25T23:18:59;5.70;99.90
31515;DHT22;40526;52.088;17.020;2023-04-25T23:24:02;5.70;99.90
31515;DHT22;40526;52.088;17.020;2023-04-25T23:29:05;5.70;99.90
31515;DHT22;40526;52.088;17.020;2023-04-25T23:34:09;5.60;99.90
31515;DHT22;40526;52.088;17.020;2023-04-25T23:39:11;5.60;99.90
31515;DHT22;40526;52.088;17.020;2023-04-25T23:44:14;5.60;99.90
31515;DHT22;40526;52.088;17.020;2023-04-25T23:49:17;5.60;99.90
31515;DHT22;40526;52.088;17.020;2023-04-25T23:54:20;5.40;99.90
31515;DHT22;40526;52.088;17.020;2023-04-25T23:59:22;5.20;99.90
